sensor_id;sensor_type;location;lat;lon;timestamp;temperature;humidity
12111;DHT22;6119;52.372;8.990;2023-04-24T00:01:15;13.70;99.90
12111;DHT22;6119;52.372;8.990;2023-04-24T00:04:03;13.60;99.90
12111;DHT22;6119;52.372;8.990;2023-04-24T00:06:52;13.60;99.90
12111;DHT22;6119;52.372;8.990;2023-04-24T00:09:42;13.60;99.90
12111;DHT22;6119;52.372;8.990;2023-04-24T00:12:29;13.60;99.90
12111;DHT22;6119;52.372;8.990;2023-04-24T00:15:17;13.60;99.90
12111;DHT22;6119;52.372;8.990;2023-04-24T00:18:03;13.50;99.90
12111;DHT22;6119;52.372;8.990;2023-04-24T00:20:52;13.50;99.90
12111;DHT22;6119;52.372;8.990;2023-04-24T00:23:38;13.50;99.90
12111;DHT22;6119;52.372;8.990;2023-04-24T00:26:25;13.50;99.90
12111;DHT22;6119;52.372;8.990;2023-04-24T00:29:11;13.40;99.90
12111;DHT22;6119;52.372;8.990;2023-04-24T00:31:58;13.40;99.90
12111;DHT22;6119;52.372;8.990;2023-04-24T00:34:45;13.40;99.90
12111;DHT22;6119;52.372;8.990;2023-04-24T00:37:33;13.30;99.90
12111;DHT22;6119;52.372;8.990;2023-04-24T00:40:20;13.20;99.90
12111;DHT22;6119;52.372;8.990;2023-04-24T00:43:07;13.20;99.90
12111;DHT22;6119;52.372;8.990;2023-04-24T00:45:55;13.10;99.90
12111;DHT22;6119;52.372;8.990;2023-04-24T00:48:43;13.10;99.90
12111;DHT22;6119;52.372;8.990;2023-04-24T00:51:30;13.10;99.90
12111;DHT22;6119;52.372;8.990;2023-04-24T00:54:19;13.00;99.90
12111;DHT22;6119;52.372;8.990;2023-04-24T00:57:06;13.00;99.90
12111;DHT22;6119;52.372;8.990;2023-04-24T00:59:53;12.90;99.90
12111;DHT22;6119;52.372;8.990;2023-04-24T01:02:41;12.90;99.90
12111;DHT22;6119;52.372;8.990;2023-04-24T01:05:31;12.90;99.90
12111;DHT22;6119;52.372;8.990;2023-04-24T01:08:18;12.80;99.90
12111;DHT22;6119;52.372;8.990;2023-04-24T01:11:06;12.70;99.90
12111;DHT22;6119;52.372;8.990;2023-04-24T01:13:53;12.80;99.90
12111;DHT22;6119;52.372;8.990;2023-04-24T01:16:39;12.70;99.90
12111;DHT22;6119;52.372;8.990;2023-04-24T01:19:26;12.70;99.90
12111;DHT22;6119;52.372;8.990;2023-04-24T01:22:15;12.60;99.90
12111;DHT22;6119;52.372;8.990;2023-04-24T01:25:03;12.70;99.90
12111;DHT22;6119;52.372;8.990;2023-04-24T01:27:50;12.60;99.90
12111;DHT22;6119;52.372;8.990;2023-04-24T01:30:37;12.60;99.90
12111;DHT22;6119;52.372;8.990;2023-04-24T01:33:24;12.50;99.90
12111;DHT22;6119;52.372;8.990;2023-04-24T01:36:11;12.50;99.90
12111;DHT22;6119;52.372;8.990;2023-04-24T01:38:59;12.50;99.90
12111;DHT22;6119;52.372;8.990;2023-04-24T01:41:46;12.40;99.90
12111;DHT22;6119;52.372;8.990;2023-04-24T01:44:33;12.50;99.90
12111;DHT22;6119;52.372;8.990;2023-04-24T01:47:20;12.50;99.90
12111;DHT22;6119;52.372;8.990;2023-04-24T01:50:08;12.50;99.90
12111;DHT22;6119;52.372;8.990;2023-04-24T01:52:55;12.60;99.90
12111;DHT22;6119;52.372;8.990;2023-04-24T01:55:42;12.60;99.90
12111;DHT22;6119;52.372;8.990;2023-04-24T01:58:29;12.50;99.90
12111;DHT22;6119;52.372;8.990;2023-04-24T02:01:18;12.60;99.90
12111;DHT22;6119;52.372;8.990;2023-04-24T02:04:06;12.60;99.90
12111;DHT22;6119;52.372;8.990;2023-04-24T02:06:53;12.60;99.90
12111;DHT22;6119;52.372;8.990;2023-04-24T02:09:40;12.70;99.90
12111;DHT22;6119;52.372;8.990;2023-04-24T02:12:28;12.60;99.90
12111;DHT22;6119;52.372;8.990;2023-04-24T02:15:15;12.70;99.90
12111;DHT22;6119;52.372;8.990;2023-04-24T02:18:02;12.60;99.90
12111;DHT22;6119;52.372;8.990;2023-04-24T02:20:49;12.60;99.90
12111;DHT22;6119;52.372;8.990;2023-04-24T02:23:35;12.60;99.90
12111;DHT22;6119;52.372;8.990;2023-04-24T02:26:21;12.60;99.90
12111;DHT22;6119;52.372;8.990;2023-04-24T02:29:09;12.60;99.90
12111;DHT22;6119;52.372;8.990;2023-04-24T02:31:56;12.60;99.90
12111;DHT22;6119;52.372;8.990;2023-04-24T02:34:43;12.60;99.90
12111;DHT22;6119;52.372;8.990;2023-04-24T02:37:29;12.50;99.90
12111;DHT22;6119;52.372;8.990;2023-04-24T02:40:16;12.50;99.90
12111;DHT22;6119;52.372;8.990;2023-04-24T02:43:02;12.50;99.90
12111;DHT22;6119;52.372;8.990;2023-04-24T02:45:50;12.50;99.90
12111;DHT22;6119;52.372;8.990;2023-04-24T02:48:36;12.40;99.90
12111;DHT22;6119;52.372;8.990;2023-04-24T02:51:23;12.40;99.90
12111;DHT22;6119;52.372;8.990;2023-04-24T02:54:10;12.40;99.90
12111;DHT22;6119;52.372;8.990;2023-04-24T02:56:56;12.40;99.90
12111;DHT22;6119;52.372;8.990;2023-04-24T02:59:43;12.30;99.90
12111;DHT22;6119;52.372;8.990;2023-04-24T03:02:31;12.20;99.90
12111;DHT22;6119;52.372;8.990;2023-04-24T03:05:18;12.20;99.90
12111;DHT22;6119;52.372;8.990;2023-04-24T03:08:04;12.30;99.90
12111;DHT22;6119;52.372;8.990;2023-04-24T03:10:51;12.20;99.90
12111;DHT22;6119;52.372;8.990;2023-04-24T03:13:37;12.10;99.90
12111;DHT22;6119;52.372;8.990;2023-04-24T03:16:25;12.10;99.90
12111;DHT22;6119;52.372;8.990;2023-04-24T03:19:13;12.10;99.90
12111;DHT22;6119;52.372;8.990;2023-04-24T03:22:01;12.10;99.90
12111;DHT22;6119;52.372;8.990;2023-04-24T03:24:48;12.10;99.90
12111;DHT22;6119;52.372;8.990;2023-04-24T03:27:34;12.10;99.90
12111;DHT22;6119;52.372;8.990;2023-04-24T03:30:21;12.00;99.90
12111;DHT22;6119;52.372;8.990;2023-04-24T03:33:07;12.00;99.90
12111;DHT22;6119;52.372;8.990;2023-04-24T03:35:56;12.00;99.90
12111;DHT22;6119;52.372;8.990;2023-04-24T03:38:42;12.00;99.90
12111;DHT22;6119;52.372;8.990;2023-04-24T03:41:29;12.00;99.90
12111;DHT22;6119;52.372;8.990;2023-04-24T03:44:16;11.90;99.90
12111;DHT22;6119;52.372;8.990;2023-04-24T03:47:02;11.90;99.90
12111;DHT22;6119;52.372;8.990;2023-04-24T03:49:49;11.90;99.90
12111;DHT22;6119;52.372;8.990;2023-04-24T03:52:38;11.90;99.90
12111;DHT22;6119;52.372;8.990;2023-04-24T03:55:24;11.90;99.90
12111;DHT22;6119;52.372;8.990;2023-04-24T03:58:11;11.80;99.90
12111;DHT22;6119;52.372;8.990;2023-04-24T04:00:58;11.90;99.90
12111;DHT22;6119;52.372;8.990;2023-04-24T04:03:45;11.90;99.90
12111;DHT22;6119;52.372;8.990;2023-04-24T04:06:32;12.00;99.90
12111;DHT22;6119;52.372;8.990;2023-04-24T04:09:20;12.00;99.90
12111;DHT22;6119;52.372;8.990;2023-04-24T04:12:06;12.00;99.90
12111;DHT22;6119;52.372;8.990;2023-04-24T04:14:53;12.00;99.90
12111;DHT22;6119;52.372;8.990;2023-04-24T04:17:39;12.00;99.90
12111;DHT22;6119;52.372;8.990;2023-04-24T04:20:26;12.00;99.90
12111;DHT22;6119;52.372;8.990;2023-04-24T04:23:12;12.10;99.90
12111;DHT22;6119;52.372;8.990;2023-04-24T04:26:00;12.10;99.90
12111;DHT22;6119;52.372;8.990;2023-04-24T04:28:46;12.20;99.90
12111;DHT22;6119;52.372;8.990;2023-04-24T04:31:34;12.10;99.90
12111;DHT22;6119;52.372;8.990;2023-04-24T04:34:20;12.10;99.90
12111;DHT22;6119;52.372;8.990;2023-04-24T04:37:07;12.10;99.90
12111;DHT22;6119;52.372;8.990;2023-04-24T04:39:56;12.10;99.90
12111;DHT22;6119;52.372;8.990;2023-04-24T04:42:44;12.10;99.90
12111;DHT22;6119;52.372;8.990;2023-04-24T04:45:31;12.00;99.90
12111;DHT22;6119;52.372;8.990;2023-04-24T04:48:19;12.00;99.90
12111;DHT22;6119;52.372;8.990;2023-04-24T04:51:06;12.10;99.90
12111;DHT22;6119;52.372;8.990;2023-04-24T04:53:52;12.00;99.90
12111;DHT22;6119;52.372;8.990;2023-04-24T04:56:39;12.00;99.90
12111;DHT22;6119;52.372;8.990;2023-04-24T04:59:26;12.00;99.90
12111;DHT22;6119;52.372;8.990;2023-04-24T05:02:13;12.00;99.90
12111;DHT22;6119;52.372;8.990;2023-04-24T05:05:00;11.90;99.90
12111;DHT22;6119;52.372;8.990;2023-04-24T05:07:47;12.00;99.90
12111;DHT22;6119;52.372;8.990;2023-04-24T05:10:34;12.10;99.90
12111;DHT22;6119;52.372;8.990;2023-04-24T05:13:22;12.00;99.90
12111;DHT22;6119;52.372;8.990;2023-04-24T05:16:12;12.00;99.90
12111;DHT22;6119;52.372;8.990;2023-04-24T05:18:59;12.00;99.90
12111;DHT22;6119;52.372;8.990;2023-04-24T05:21:45;12.00;99.90
12111;DHT22;6119;52.372;8.990;2023-04-24T05:24:32;12.00;99.90
12111;DHT22;6119;52.372;8.990;2023-04-24T05:27:19;12.00;99.90
12111;DHT22;6119;52.372;8.990;2023-04-24T05:30:07;10.70;99.90
12111;DHT22;6119;52.372;8.990;2023-04-24T05:32:56;11.90;99.90
12111;DHT22;6119;52.372;8.990;2023-04-24T05:35:46;11.90;99.90
12111;DHT22;6119;52.372;8.990;2023-04-24T05:38:32;11.80;99.90
12111;DHT22;6119;52.372;8.990;2023-04-24T05:41:19;11.90;99.90
12111;DHT22;6119;52.372;8.990;2023-04-24T05:44:06;11.80;99.90
12111;DHT22;6119;52.372;8.990;2023-04-24T05:46:52;11.80;99.90
12111;DHT22;6119;52.372;8.990;2023-04-24T05:49:42;11.70;99.90
12111;DHT22;6119;52.372;8.990;2023-04-24T05:52:29;11.70;99.90
12111;DHT22;6119;52.372;8.990;2023-04-24T05:55:15;11.70;99.90
12111;DHT22;6119;52.372;8.990;2023-04-24T05:58:02;11.60;99.90
12111;DHT22;6119;52.372;8.990;2023-04-24T06:00:49;11.70;99.90
12111;DHT22;6119;52.372;8.990;2023-04-24T06:03:36;11.60;99.90
12111;DHT22;6119;52.372;8.990;2023-04-24T06:06:24;11.60;99.90
12111;DHT22;6119;52.372;8.990;2023-04-24T06:09:12;11.70;99.90
12111;DHT22;6119;52.372;8.990;2023-04-24T06:11:59;11.70;99.90
12111;DHT22;6119;52.372;8.990;2023-04-24T06:14:45;11.70;99.90
12111;DHT22;6119;52.372;8.990;2023-04-24T06:17:32;11.80;99.90
12111;DHT22;6119;52.372;8.990;2023-04-24T06:20:19;11.90;99.90
12111;DHT22;6119;52.372;8.990;2023-04-24T06:23:07;11.90;99.90
12111;DHT22;6119;52.372;8.990;2023-04-24T06:25:54;11.90;99.90
12111;DHT22;6119;52.372;8.990;2023-04-24T06:28:40;12.00;99.90
12111;DHT22;6119;52.372;8.990;2023-04-24T06:31:26;11.90;99.90
12111;DHT22;6119;52.372;8.990;2023-04-24T06:34:13;11.80;99.90
12111;DHT22;6119;52.372;8.990;2023-04-24T06:37:00;11.80;99.90
12111;DHT22;6119;52.372;8.990;2023-04-24T06:39:48;11.90;99.90
12111;DHT22;6119;52.372;8.990;2023-04-24T06:42:35;11.90;99.90
12111;DHT22;6119;52.372;8.990;2023-04-24T06:45:22;11.90;99.90
12111;DHT22;6119;52.372;8.990;2023-04-24T06:48:09;11.90;99.90
12111;DHT22;6119;52.372;8.990;2023-04-24T06:50:56;11.90;99.90
12111;DHT22;6119;52.372;8.990;2023-04-24T06:53:42;11.90;99.90
12111;DHT22;6119;52.372;8.990;2023-04-24T06:56:31;11.80;99.90
12111;DHT22;6119;52.372;8.990;2023-04-24T06:59:19;11.90;99.90
12111;DHT22;6119;52.372;8.990;2023-04-24T07:02:06;11.90;99.90
12111;DHT22;6119;52.372;8.990;2023-04-24T07:04:53;12.00;99.90
12111;DHT22;6119;52.372;8.990;2023-04-24T07:07:40;11.90;99.90
12111;DHT22;6119;52.372;8.990;2023-04-24T07:10:28;11.90;99.90
12111;DHT22;6119;52.372;8.990;2023-04-24T07:13:17;12.00;99.90
12111;DHT22;6119;52.372;8.990;2023-04-24T07:16:04;12.10;99.90
12111;DHT22;6119;52.372;8.990;2023-04-24T07:18:51;12.20;99.90
12111;DHT22;6119;52.372;8.990;2023-04-24T07:21:38;12.10;99.90
12111;DHT22;6119;52.372;8.990;2023-04-24T07:24:25;12.10;99.90
12111;DHT22;6119;52.372;8.990;2023-04-24T07:27:15;11.90;99.90
12111;DHT22;6119;52.372;8.990;2023-04-24T07:30:03;12.00;99.90
12111;DHT22;6119;52.372;8.990;2023-04-24T07:32:50;12.00;99.90
12111;DHT22;6119;52.372;8.990;2023-04-24T07:35:36;11.90;99.90
12111;DHT22;6119;52.372;8.990;2023-04-24T07:38:23;11.80;99.90
12111;DHT22;6119;52.372;8.990;2023-04-24T07:41:11;11.90;99.90
12111;DHT22;6119;52.372;8.990;2023-04-24T07:43:58;11.90;99.90
12111;DHT22;6119;52.372;8.990;2023-04-24T07:46:46;11.90;99.90
12111;DHT22;6119;52.372;8.990;2023-04-24T07:49:33;11.80;99.90
12111;DHT22;6119;52.372;8.990;2023-04-24T07:52:20;11.80;99.90
12111;DHT22;6119;52.372;8.990;2023-04-24T07:55:07;11.90;99.90
12111;DHT22;6119;52.372;8.990;2023-04-24T07:57:53;11.80;99.90
12111;DHT22;6119;52.372;8.990;2023-04-24T08:00:40;11.90;99.90
12111;DHT22;6119;52.372;8.990;2023-04-24T08:03:27;11.80;99.90
12111;DHT22;6119;52.372;8.990;2023-04-24T08:06:14;11.80;99.90
12111;DHT22;6119;52.372;8.990;2023-04-24T08:09:01;11.90;99.90
12111;DHT22;6119;52.372;8.990;2023-04-24T08:11:47;11.80;99.90
12111;DHT22;6119;52.372;8.990;2023-04-24T08:14:34;11.90;99.90
12111;DHT22;6119;52.372;8.990;2023-04-24T08:17:21;12.00;99.90
12111;DHT22;6119;52.372;8.990;2023-04-24T08:20:10;11.90;99.90
12111;DHT22;6119;52.372;8.990;2023-04-24T08:22:58;12.00;99.90
12111;DHT22;6119;52.372;8.990;2023-04-24T08:25:45;12.10;99.90
12111;DHT22;6119;52.372;8.990;2023-04-24T08:28:32;12.10;99.90
12111;DHT22;6119;52.372;8.990;2023-04-24T08:31:18;12.20;99.90
12111;DHT22;6119;52.372;8.990;2023-04-24T08:34:05;12.30;99.90
12111;DHT22;6119;52.372;8.990;2023-04-24T08:36:53;12.60;99.90
12111;DHT22;6119;52.372;8.990;2023-04-24T08:39:40;12.70;99.90
12111;DHT22;6119;52.372;8.990;2023-04-24T08:42:28;12.50;99.90
12111;DHT22;6119;52.372;8.990;2023-04-24T08:45:18;12.40;99.90
12111;DHT22;6119;52.372;8.990;2023-04-24T08:48:04;12.40;99.90
12111;DHT22;6119;52.372;8.990;2023-04-24T08:51:06;12.40;99.90
12111;DHT22;6119;52.372;8.990;2023-04-24T08:53:55;12.40;99.90
12111;DHT22;6119;52.372;8.990;2023-04-24T08:56:44;12.50;99.90
12111;DHT22;6119;52.372;8.990;2023-04-24T08:59:31;12.40;99.90
12111;DHT22;6119;52.372;8.990;2023-04-24T09:02:18;12.30;99.90
12111;DHT22;6119;52.372;8.990;2023-04-24T09:05:06;12.20;99.90
12111;DHT22;6119;52.372;8.990;2023-04-24T09:07:55;12.30;99.90
12111;DHT22;6119;52.372;8.990;2023-04-24T09:10:43;12.30;99.90
12111;DHT22;6119;52.372;8.990;2023-04-24T09:13:32;12.10;99.90
12111;DHT22;6119;52.372;8.990;2023-04-24T09:16:19;12.20;99.90
12111;DHT22;6119;52.372;8.990;2023-04-24T09:19:08;12.30;99.90
12111;DHT22;6119;52.372;8.990;2023-04-24T09:21:55;12.50;99.90
12111;DHT22;6119;52.372;8.990;2023-04-24T09:24:42;12.40;99.90
12111;DHT22;6119;52.372;8.990;2023-04-24T09:27:31;12.40;99.90
12111;DHT22;6119;52.372;8.990;2023-04-24T09:30:21;12.30;99.90
12111;DHT22;6119;52.372;8.990;2023-04-24T09:33:13;12.20;99.90
12111;DHT22;6119;52.372;8.990;2023-04-24T09:36:00;12.30;99.90
12111;DHT22;6119;52.372;8.990;2023-04-24T09:38:47;11.10;99.90
12111;DHT22;6119;52.372;8.990;2023-04-24T09:41:34;12.40;99.90
12111;DHT22;6119;52.372;8.990;2023-04-24T09:44:24;12.40;99.90
12111;DHT22;6119;52.372;8.990;2023-04-24T09:47:10;12.30;99.90
12111;DHT22;6119;52.372;8.990;2023-04-24T09:49:58;12.40;99.90
12111;DHT22;6119;52.372;8.990;2023-04-24T09:52:46;12.60;99.90
12111;DHT22;6119;52.372;8.990;2023-04-24T09:55:32;12.60;99.90
12111;DHT22;6119;52.372;8.990;2023-04-24T09:58:24;12.40;99.90
12111;DHT22;6119;52.372;8.990;2023-04-24T10:01:13;12.40;99.90
12111;DHT22;6119;52.372;8.990;2023-04-24T10:04:00;12.30;99.90
12111;DHT22;6119;52.372;8.990;2023-04-24T10:06:47;12.20;99.90
12111;DHT22;6119;52.372;8.990;2023-04-24T10:09:35;12.20;99.90
12111;DHT22;6119;52.372;8.990;2023-04-24T10:12:23;12.10;99.90
12111;DHT22;6119;52.372;8.990;2023-04-24T10:15:10;12.40;99.90
12111;DHT22;6119;52.372;8.990;2023-04-24T10:18:00;12.50;99.90
12111;DHT22;6119;52.372;8.990;2023-04-24T10:20:48;12.80;99.90
12111;DHT22;6119;52.372;8.990;2023-04-24T10:23:36;13.10;99.90
12111;DHT22;6119;52.372;8.990;2023-04-24T10:26:23;13.10;99.90
12111;DHT22;6119;52.372;8.990;2023-04-24T10:29:12;12.90;99.90
12111;DHT22;6119;52.372;8.990;2023-04-24T10:31:58;13.00;99.90
12111;DHT22;6119;52.372;8.990;2023-04-24T10:34:46;12.90;99.90
12111;DHT22;6119;52.372;8.990;2023-04-24T10:37:36;12.80;99.90
12111;DHT22;6119;52.372;8.990;2023-04-24T10:40:26;12.90;99.90
12111;DHT22;6119;52.372;8.990;2023-04-24T10:43:17;12.80;99.90
12111;DHT22;6119;52.372;8.990;2023-04-24T10:46:05;12.60;99.90
12111;DHT22;6119;52.372;8.990;2023-04-24T10:48:53;12.60;99.90
12111;DHT22;6119;52.372;8.990;2023-04-24T10:51:49;12.60;99.90
12111;DHT22;6119;52.372;8.990;2023-04-24T10:54:40;12.70;99.90
12111;DHT22;6119;52.372;8.990;2023-04-24T10:57:29;12.70;99.90
12111;DHT22;6119;52.372;8.990;2023-04-24T11:00:22;13.00;99.90
12111;DHT22;6119;52.372;8.990;2023-04-24T11:03:26;13.10;99.90
12111;DHT22;6119;52.372;8.990;2023-04-24T11:06:14;13.20;99.90
12111;DHT22;6119;52.372;8.990;2023-04-24T11:09:06;13.40;99.90
12111;DHT22;6119;52.372;8.990;2023-04-24T11:12:02;13.20;99.90
12111;DHT22;6119;52.372;8.990;2023-04-24T11:15:01;13.00;99.90
12111;DHT22;6119;52.372;8.990;2023-04-24T11:17:48;13.00;99.90
12111;DHT22;6119;52.372;8.990;2023-04-24T11:20:36;13.30;99.90
12111;DHT22;6119;52.372;8.990;2023-04-24T11:23:22;13.30;99.90
12111;DHT22;6119;52.372;8.990;2023-04-24T11:26:17;13.10;99.90
12111;DHT22;6119;52.372;8.990;2023-04-24T11:29:07;12.90;99.90
12111;DHT22;6119;52.372;8.990;2023-04-24T11:31:54;12.70;99.90
12111;DHT22;6119;52.372;8.990;2023-04-24T11:34:45;12.40;99.90
12111;DHT22;6119;52.372;8.990;2023-04-24T11:37:35;12.20;99.90
12111;DHT22;6119;52.372;8.990;2023-04-24T11:40:23;12.10;99.90
12111;DHT22;6119;52.372;8.990;2023-04-24T11:43:12;12.20;99.90
12111;DHT22;6119;52.372;8.990;2023-04-24T11:46:01;12.10;99.90
12111;DHT22;6119;52.372;8.990;2023-04-24T11:48:50;12.00;99.90
12111;DHT22;6119;52.372;8.990;2023-04-24T11:51:37;11.90;99.90
12111;DHT22;6119;52.372;8.990;2023-04-24T11:54:38;11.80;99.90
12111;DHT22;6119;52.372;8.990;2023-04-24T11:57:25;11.70;99.90
12111;DHT22;6119;52.372;8.990;2023-04-24T12:00:18;11.70;99.90
12111;DHT22;6119;52.372;8.990;2023-04-24T12:03:06;11.80;99.90
12111;DHT22;6119;52.372;8.990;2023-04-24T12:06:04;11.70;99.90
12111;DHT22;6119;52.372;8.990;2023-04-24T12:08:52;11.60;99.90
12111;DHT22;6119;52.372;8.990;2023-04-24T12:11:53;11.50;99.90
12111;DHT22;6119;52.372;8.990;2023-04-24T12:14:50;11.40;99.90
12111;DHT22;6119;52.372;8.990;2023-04-24T12:17:41;11.30;99.90
12111;DHT22;6119;52.372;8.990;2023-04-24T12:20:30;11.40;99.90
12111;DHT22;6119;52.372;8.990;2023-04-24T12:23:33;11.40;99.90
12111;DHT22;6119;52.372;8.990;2023-04-24T12:26:20;11.40;99.90
12111;DHT22;6119;52.372;8.990;2023-04-24T12:29:07;11.30;99.90
12111;DHT22;6119;52.372;8.990;2023-04-24T12:31:54;11.30;99.90
12111;DHT22;6119;52.372;8.990;2023-04-24T12:34:43;11.10;99.90
12111;DHT22;6119;52.372;8.990;2023-04-24T12:37:33;11.10;99.90
12111;DHT22;6119;52.372;8.990;2023-04-24T12:40:25;11.00;99.90
12111;DHT22;6119;52.372;8.990;2023-04-24T12:43:14;10.70;99.90
12111;DHT22;6119;52.372;8.990;2023-04-24T12:46:02;10.70;99.90
12111;DHT22;6119;52.372;8.990;2023-04-24T12:48:49;10.60;99.90
12111;DHT22;6119;52.372;8.990;2023-04-24T12:51:38;10.60;99.90
12111;DHT22;6119;52.372;8.990;2023-04-24T12:54:24;10.50;99.90
12111;DHT22;6119;52.372;8.990;2023-04-24T12:57:11;10.30;99.90
12111;DHT22;6119;52.372;8.990;2023-04-24T12:59:58;10.20;99.90
12111;DHT22;6119;52.372;8.990;2023-04-24T13:02:45;10.20;99.90
12111;DHT22;6119;52.372;8.990;2023-04-24T13:05:31;10.20;99.90
12111;DHT22;6119;52.372;8.990;2023-04-24T13:08:19;10.10;99.90
12111;DHT22;6119;52.372;8.990;2023-04-24T13:11:05;10.20;99.90
12111;DHT22;6119;52.372;8.990;2023-04-24T13:13:52;10.10;99.90
12111;DHT22;6119;52.372;8.990;2023-04-24T13:16:39;9.90;99.90
12111;DHT22;6119;52.372;8.990;2023-04-24T13:19:27;9.80;99.90
12111;DHT22;6119;52.372;8.990;2023-04-24T13:22:15;9.80;99.90
12111;DHT22;6119;52.372;8.990;2023-04-24T13:25:06;9.80;99.90
12111;DHT22;6119;52.372;8.990;2023-04-24T13:27:54;10.10;99.90
12111;DHT22;6119;52.372;8.990;2023-04-24T13:30:40;9.90;99.90
12111;DHT22;6119;52.372;8.990;2023-04-24T13:33:27;9.90;99.90
12111;DHT22;6119;52.372;8.990;2023-04-24T13:36:14;9.90;99.90
12111;DHT22;6119;52.372;8.990;2023-04-24T13:39:02;9.90;99.90
12111;DHT22;6119;52.372;8.990;2023-04-24T13:41:50;10.00;99.90
12111;DHT22;6119;52.372;8.990;2023-04-24T13:44:37;9.80;99.90
12111;DHT22;6119;52.372;8.990;2023-04-24T13:47:24;9.90;99.90
12111;DHT22;6119;52.372;8.990;2023-04-24T13:50:10;9.80;99.90
12111;DHT22;6119;52.372;8.990;2023-04-24T13:52:57;9.80;99.90
12111;DHT22;6119;52.372;8.990;2023-04-24T13:55:47;9.70;99.90
12111;DHT22;6119;52.372;8.990;2023-04-24T13:58:35;9.90;99.90
12111;DHT22;6119;52.372;8.990;2023-04-24T14:01:22;9.90;99.90
12111;DHT22;6119;52.372;8.990;2023-04-24T14:04:10;9.80;99.90
12111;DHT22;6119;52.372;8.990;2023-04-24T14:06:58;10.00;99.90
12111;DHT22;6119;52.372;8.990;2023-04-24T14:09:44;10.10;99.90
12111;DHT22;6119;52.372;8.990;2023-04-24T14:12:31;10.30;99.90
12111;DHT22;6119;52.372;8.990;2023-04-24T14:15:19;10.40;99.90
12111;DHT22;6119;52.372;8.990;2023-04-24T14:18:06;10.20;99.90
12111;DHT22;6119;52.372;8.990;2023-04-24T14:20:53;10.10;99.90
12111;DHT22;6119;52.372;8.990;2023-04-24T14:23:39;9.80;99.90
12111;DHT22;6119;52.372;8.990;2023-04-24T14:26:26;10.00;99.90
12111;DHT22;6119;52.372;8.990;2023-04-24T14:29:13;10.00;99.90
12111;DHT22;6119;52.372;8.990;2023-04-24T14:32:01;10.20;99.90
12111;DHT22;6119;52.372;8.990;2023-04-24T14:34:48;10.10;99.90
12111;DHT22;6119;52.372;8.990;2023-04-24T14:37:35;10.10;99.90
12111;DHT22;6119;52.372;8.990;2023-04-24T14:40:22;10.00;99.90
12111;DHT22;6119;52.372;8.990;2023-04-24T14:43:29;10.10;99.90
12111;DHT22;6119;52.372;8.990;2023-04-24T14:46:15;10.30;99.90
12111;DHT22;6119;52.372;8.990;2023-04-24T14:49:03;10.30;99.90
12111;DHT22;6119;52.372;8.990;2023-04-24T14:51:50;10.30;99.90
12111;DHT22;6119;52.372;8.990;2023-04-24T14:54:37;10.30;99.90
12111;DHT22;6119;52.372;8.990;2023-04-24T14:57:23;10.30;99.90
12111;DHT22;6119;52.372;8.990;2023-04-24T15:00:11;10.40;99.90
12111;DHT22;6119;52.372;8.990;2023-04-24T15:02:57;10.30;99.90
12111;DHT22;6119;52.372;8.990;2023-04-24T15:05:46;10.50;99.90
12111;DHT22;6119;52.372;8.990;2023-04-24T15:08:32;10.40;99.90
12111;DHT22;6119;52.372;8.990;2023-04-24T15:11:19;10.40;99.90
12111;DHT22;6119;52.372;8.990;2023-04-24T15:14:06;10.40;99.90
12111;DHT22;6119;52.372;8.990;2023-04-24T15:16:54;10.60;99.90
12111;DHT22;6119;52.372;8.990;2023-04-24T15:19:41;10.40;99.90
12111;DHT22;6119;52.372;8.990;2023-04-24T15:22:29;10.40;99.90
12111;DHT22;6119;52.372;8.990;2023-04-24T15:25:16;10.40;99.90
12111;DHT22;6119;52.372;8.990;2023-04-24T15:28:03;10.50;99.90
12111;DHT22;6119;52.372;8.990;2023-04-24T15:30:51;10.40;99.90
12111;DHT22;6119;52.372;8.990;2023-04-24T15:33:37;10.40;99.90
12111;DHT22;6119;52.372;8.990;2023-04-24T15:36:24;10.30;99.90
12111;DHT22;6119;52.372;8.990;2023-04-24T15:39:12;10.50;99.90
12111;DHT22;6119;52.372;8.990;2023-04-24T15:41:59;10.40;99.90
12111;DHT22;6119;52.372;8.990;2023-04-24T15:44:45;10.40;99.90
12111;DHT22;6119;52.372;8.990;2023-04-24T15:47:32;10.30;99.90
12111;DHT22;6119;52.372;8.990;2023-04-24T15:50:19;10.20;99.90
12111;DHT22;6119;52.372;8.990;2023-04-24T15:53:07;10.20;99.90
12111;DHT22;6119;52.372;8.990;2023-04-24T15:55:55;10.20;99.90
12111;DHT22;6119;52.372;8.990;2023-04-24T15:58:42;10.30;99.90
12111;DHT22;6119;52.372;8.990;2023-04-24T16:01:29;10.20;99.90
12111;DHT22;6119;52.372;8.990;2023-04-24T16:04:16;10.20;99.90
12111;DHT22;6119;52.372;8.990;2023-04-24T16:07:03;10.10;99.90
12111;DHT22;6119;52.372;8.990;2023-04-24T16:09:49;10.00;99.90
12111;DHT22;6119;52.372;8.990;2023-04-24T16:12:38;9.90;99.90
12111;DHT22;6119;52.372;8.990;2023-04-24T16:15:24;9.90;99.90
12111;DHT22;6119;52.372;8.990;2023-04-24T16:18:11;10.10;99.90
12111;DHT22;6119;52.372;8.990;2023-04-24T16:20:57;10.00;99.90
12111;DHT22;6119;52.372;8.990;2023-04-24T16:23:43;10.00;99.90
12111;DHT22;6119;52.372;8.990;2023-04-24T16:26:30;10.10;99.90
12111;DHT22;6119;52.372;8.990;2023-04-24T16:29:20;10.00;99.90
12111;DHT22;6119;52.372;8.990;2023-04-24T16:32:06;10.10;99.90
12111;DHT22;6119;52.372;8.990;2023-04-24T16:34:53;10.00;99.90
12111;DHT22;6119;52.372;8.990;2023-04-24T16:37:39;9.90;99.90
12111;DHT22;6119;52.372;8.990;2023-04-24T16:40:26;10.00;99.90
12111;DHT22;6119;52.372;8.990;2023-04-24T16:43:13;9.90;99.90
12111;DHT22;6119;52.372;8.990;2023-04-24T16:46:01;10.00;99.90
12111;DHT22;6119;52.372;8.990;2023-04-24T16:48:48;10.00;99.90
12111;DHT22;6119;52.372;8.990;2023-04-24T16:51:35;10.10;99.90
12111;DHT22;6119;52.372;8.990;2023-04-24T16:54:21;9.90;99.90
12111;DHT22;6119;52.372;8.990;2023-04-24T16:57:08;10.00;99.90
12111;DHT22;6119;52.372;8.990;2023-04-24T16:59:54;10.10;99.90
12111;DHT22;6119;52.372;8.990;2023-04-24T17:02:42;10.00;99.90
12111;DHT22;6119;52.372;8.990;2023-04-24T17:05:33;10.10;99.90
12111;DHT22;6119;52.372;8.990;2023-04-24T17:08:20;10.20;99.90
12111;DHT22;6119;52.372;8.990;2023-04-24T17:11:08;10.10;99.90
12111;DHT22;6119;52.372;8.990;2023-04-24T17:13:54;10.10;99.90
12111;DHT22;6119;52.372;8.990;2023-04-24T17:16:44;10.10;99.90
12111;DHT22;6119;52.372;8.990;2023-04-24T17:19:32;10.10;99.90
12111;DHT22;6119;52.372;8.990;2023-04-24T17:22:19;10.10;99.90
12111;DHT22;6119;52.372;8.990;2023-04-24T17:25:06;10.20;99.90
12111;DHT22;6119;52.372;8.990;2023-04-24T17:27:52;10.10;99.90
12111;DHT22;6119;52.372;8.990;2023-04-24T17:30:39;9.90;99.90
12111;DHT22;6119;52.372;8.990;2023-04-24T17:33:26;10.00;99.90
12111;DHT22;6119;52.372;8.990;2023-04-24T17:36:14;10.00;99.90
12111;DHT22;6119;52.372;8.990;2023-04-24T17:39:01;10.10;99.90
12111;DHT22;6119;52.372;8.990;2023-04-24T17:41:48;10.10;99.90
12111;DHT22;6119;52.372;8.990;2023-04-24T17:44:35;10.00;99.90
12111;DHT22;6119;52.372;8.990;2023-04-24T17:47:22;10.00;99.90
12111;DHT22;6119;52.372;8.990;2023-04-24T17:50:10;9.90;99.90
12111;DHT22;6119;52.372;8.990;2023-04-24T17:52:58;9.80;99.90
12111;DHT22;6119;52.372;8.990;2023-04-24T17:55:45;9.80;99.90
12111;DHT22;6119;52.372;8.990;2023-04-24T17:58:32;9.80;99.90